sensor_id;sensor_type;location;lat;lon;timestamp;P1;durP1;ratioP1;P2;durP2;ratioP2
58518;SDS011;44310;48.106;12.008;2023-02-01T00:01:21;6.72;;;1.90;;
58518;SDS011;44310;48.106;12.008;2023-02-01T00:03:48;8.32;;;1.88;;
58518;SDS011;44310;48.106;12.008;2023-02-01T00:06:16;11.13;;;2.40;;
58518;SDS011;44310;48.106;12.008;2023-02-01T00:08:43;16.33;;;2.78;;
58518;SDS011;44310;48.106;12.008;2023-02-01T00:11:11;7.57;;;1.90;;
58518;SDS011;44310;48.106;12.008;2023-02-01T00:13:39;9.40;;;1.90;;
58518;SDS011;44310;48.106;12.008;2023-02-01T00:16:09;18.48;;;3.67;;
58518;SDS011;44310;48.106;12.008;2023-02-01T00:18:43;7.95;;;1.98;;
58518;SDS011;44310;48.106;12.008;2023-02-01T00:21:16;6.57;;;1.77;;
58518;SDS011;44310;48.106;12.008;2023-02-01T00:23:45;6.63;;;1.77;;
58518;SDS011;44310;48.106;12.008;2023-02-01T00:26:46;5.95;;;1.77;;
58518;SDS011;44310;48.106;12.008;2023-02-01T00:29:18;7.93;;;1.77;;
58518;SDS011;44310;48.106;12.008;2023-02-01T00:31:46;4.68;;;1.40;;
58518;SDS011;44310;48.106;12.008;2023-02-01T00:34:16;8.40;;;2.22;;
58518;SDS011;44310;48.106;12.008;2023-02-01T00:36:44;10.25;;;2.33;;
58518;SDS011;44310;48.106;12.008;2023-02-01T00:39:12;10.15;;;1.98;;
58518;SDS011;44310;48.106;12.008;2023-02-01T00:41:39;9.40;;;2.15;;
58518;SDS011;44310;48.106;12.008;2023-02-01T00:44:07;8.00;;;1.80;;
58518;SDS011;44310;48.106;12.008;2023-02-01T00:46:34;9.52;;;2.00;;
58518;SDS011;44310;48.106;12.008;2023-02-01T00:49:02;10.13;;;2.03;;
58518;SDS011;44310;48.106;12.008;2023-02-01T00:51:29;7.28;;;1.55;;
58518;SDS011;44310;48.106;12.008;2023-02-01T00:53:57;4.40;;;1.40;;
58518;SDS011;44310;48.106;12.008;2023-02-01T00:56:24;6.72;;;1.50;;
58518;SDS011;44310;48.106;12.008;2023-02-01T00:58:51;4.32;;;1.40;;
58518;SDS011;44310;48.106;12.008;2023-02-01T01:03:48;6.38;;;1.40;;
58518;SDS011;44310;48.106;12.008;2023-02-01T01:06:27;4.63;;;1.30;;
58518;SDS011;44310;48.106;12.008;2023-02-01T01:08:57;6.15;;;1.30;;
58518;SDS011;44310;48.106;12.008;2023-02-01T01:11:27;4.50;;;1.30;;
58518;SDS011;44310;48.106;12.008;2023-02-01T01:13:56;3.45;;;1.15;;
58518;SDS011;44310;48.106;12.008;2023-02-01T01:16:25;5.00;;;1.40;;
58518;SDS011;44310;48.106;12.008;2023-02-01T01:18:53;3.80;;;1.00;;
58518;SDS011;44310;48.106;12.008;2023-02-01T01:21:21;2.38;;;0.90;;
58518;SDS011;44310;48.106;12.008;2023-02-01T01:23:48;3.92;;;1.05;;
58518;SDS011;44310;48.106;12.008;2023-02-01T01:26:17;5.63;;;1.42;;
58518;SDS011;44310;48.106;12.008;2023-02-01T01:28:46;7.53;;;1.65;;
58518;SDS011;44310;48.106;12.008;2023-02-01T01:31:14;5.15;;;1.48;;
58518;SDS011;44310;48.106;12.008;2023-02-01T01:33:43;6.38;;;1.30;;
58518;SDS011;44310;48.106;12.008;2023-02-01T01:36:11;8.00;;;1.42;;
58518;SDS011;44310;48.106;12.008;2023-02-01T01:38:39;11.00;;;2.20;;
58518;SDS011;44310;48.106;12.008;2023-02-01T01:41:07;7.20;;;1.50;;
58518;SDS011;44310;48.106;12.008;2023-02-01T01:46:21;6.05;;;1.50;;
58518;SDS011;44310;48.106;12.008;2023-02-01T01:48:53;5.63;;;1.40;;
58518;SDS011;44310;48.106;12.008;2023-02-01T01:51:36;5.53;;;1.20;;
58518;SDS011;44310;48.106;12.008;2023-02-01T01:54:09;4.83;;;1.20;;
58518;SDS011;44310;48.106;12.008;2023-02-01T01:56:42;4.47;;;1.08;;
58518;SDS011;44310;48.106;12.008;2023-02-01T01:59:10;17.27;;;3.00;;
58518;SDS011;44310;48.106;12.008;2023-02-01T02:01:37;7.78;;;1.70;;
58518;SDS011;44310;48.106;12.008;2023-02-01T02:04:04;19.45;;;2.90;;
58518;SDS011;44310;48.106;12.008;2023-02-01T02:06:40;9.17;;;2.07;;
58518;SDS011;44310;48.106;12.008;2023-02-01T02:09:14;6.78;;;1.98;;
58518;SDS011;44310;48.106;12.008;2023-02-01T02:11:42;8.03;;;1.73;;
58518;SDS011;44310;48.106;12.008;2023-02-01T02:14:11;12.20;;;1.95;;
58518;SDS011;44310;48.106;12.008;2023-02-01T02:26:29;11.38;;;2.47;;
58518;SDS011;44310;48.106;12.008;2023-02-01T02:29:17;12.27;;;2.58;;
58518;SDS011;44310;48.106;12.008;2023-02-01T02:34:42;17.17;;;3.15;;
58518;SDS011;44310;48.106;12.008;2023-02-01T02:37:25;10.38;;;2.58;;
58518;SDS011;44310;48.106;12.008;2023-02-01T02:43:17;6.25;;;1.77;;
58518;SDS011;44310;48.106;12.008;2023-02-01T02:46:18;6.00;;;1.58;;
58518;SDS011;44310;48.106;12.008;2023-02-01T02:49:22;7.18;;;1.60;;
58518;SDS011;44310;48.106;12.008;2023-02-01T02:52:16;5.07;;;1.27;;
58518;SDS011;44310;48.106;12.008;2023-02-01T02:55:05;4.35;;;1.10;;
58518;SDS011;44310;48.106;12.008;2023-02-01T02:57:39;5.22;;;1.30;;
58518;SDS011;44310;48.106;12.008;2023-02-01T03:00:28;5.07;;;1.37;;
58518;SDS011;44310;48.106;12.008;2023-02-01T03:03:16;6.10;;;1.60;;
58518;SDS011;44310;48.106;12.008;2023-02-01T03:06:02;18.20;;;3.38;;
58518;SDS011;44310;48.106;12.008;2023-02-01T03:08:30;7.17;;;1.50;;
58518;SDS011;44310;48.106;12.008;2023-02-01T03:11:08;7.10;;;1.50;;
58518;SDS011;44310;48.106;12.008;2023-02-01T03:16:09;4.40;;;1.30;;
58518;SDS011;44310;48.106;12.008;2023-02-01T03:18:56;3.83;;;1.10;;
58518;SDS011;44310;48.106;12.008;2023-02-01T03:21:46;4.60;;;1.20;;
58518;SDS011;44310;48.106;12.008;2023-02-01T03:26:52;2.15;;;0.80;;
58518;SDS011;44310;48.106;12.008;2023-02-01T03:29:23;7.75;;;1.10;;
58518;SDS011;44310;48.106;12.008;2023-02-01T03:31:53;5.20;;;1.30;;
58518;SDS011;44310;48.106;12.008;2023-02-01T03:34:20;7.90;;;1.90;;
58518;SDS011;44310;48.106;12.008;2023-02-01T03:36:49;6.50;;;1.20;;
58518;SDS011;44310;48.106;12.008;2023-02-01T03:39:22;4.32;;;1.20;;
58518;SDS011;44310;48.106;12.008;2023-02-01T03:41:56;5.70;;;1.45;;
58518;SDS011;44310;48.106;12.008;2023-02-01T03:47:26;4.35;;;1.33;;
58518;SDS011;44310;48.106;12.008;2023-02-01T03:50:06;3.80;;;1.08;;
58518;SDS011;44310;48.106;12.008;2023-02-01T03:52:42;4.90;;;1.30;;
58518;SDS011;44310;48.106;12.008;2023-02-01T03:55:30;7.00;;;1.40;;
58518;SDS011;44310;48.106;12.008;2023-02-01T03:58:00;5.30;;;1.15;;
58518;SDS011;44310;48.106;12.008;2023-02-01T04:00:28;4.20;;;1.13;;
58518;SDS011;44310;48.106;12.008;2023-02-01T04:02:57;3.80;;;1.10;;
58518;SDS011;44310;48.106;12.008;2023-02-01T04:05:24;3.03;;;1.00;;
58518;SDS011;44310;48.106;12.008;2023-02-01T04:07:51;5.25;;;1.02;;
58518;SDS011;44310;48.106;12.008;2023-02-01T04:10:19;5.72;;;1.27;;
58518;SDS011;44310;48.106;12.008;2023-02-01T04:12:46;4.25;;;1.10;;
58518;SDS011;44310;48.106;12.008;2023-02-01T04:15:13;5.07;;;1.30;;
58518;SDS011;44310;48.106;12.008;2023-02-01T04:17:40;10.88;;;1.60;;
58518;SDS011;44310;48.106;12.008;2023-02-01T04:20:08;6.65;;;1.50;;
58518;SDS011;44310;48.106;12.008;2023-02-01T04:22:35;5.60;;;1.35;;
58518;SDS011;44310;48.106;12.008;2023-02-01T04:25:03;8.52;;;1.88;;
58518;SDS011;44310;48.106;12.008;2023-02-01T04:27:32;6.82;;;1.65;;
58518;SDS011;44310;48.106;12.008;2023-02-01T04:29:59;8.40;;;1.70;;
58518;SDS011;44310;48.106;12.008;2023-02-01T04:32:26;14.10;;;2.80;;
58518;SDS011;44310;48.106;12.008;2023-02-01T04:34:53;7.45;;;1.80;;
58518;SDS011;44310;48.106;12.008;2023-02-01T04:37:20;3.63;;;1.27;;
58518;SDS011;44310;48.106;12.008;2023-02-01T04:39:47;5.93;;;1.50;;
58518;SDS011;44310;48.106;12.008;2023-02-01T04:42:14;6.47;;;1.35;;
58518;SDS011;44310;48.106;12.008;2023-02-01T04:44:41;6.88;;;1.30;;
58518;SDS011;44310;48.106;12.008;2023-02-01T04:47:09;5.07;;;1.50;;
58518;SDS011;44310;48.106;12.008;2023-02-01T04:49:36;3.63;;;1.10;;
58518;SDS011;44310;48.106;12.008;2023-02-01T04:52:03;5.57;;;1.30;;
58518;SDS011;44310;48.106;12.008;2023-02-01T04:54:30;4.25;;;1.33;;
58518;SDS011;44310;48.106;12.008;2023-02-01T04:56:58;6.68;;;1.50;;
58518;SDS011;44310;48.106;12.008;2023-02-01T04:59:25;7.20;;;1.40;;
58518;SDS011;44310;48.106;12.008;2023-02-01T05:01:52;4.97;;;1.05;;
58518;SDS011;44310;48.106;12.008;2023-02-01T05:04:19;5.40;;;1.23;;
58518;SDS011;44310;48.106;12.008;2023-02-01T05:06:47;7.03;;;1.42;;
58518;SDS011;44310;48.106;12.008;2023-02-01T05:09:14;5.07;;;1.33;;
58518;SDS011;44310;48.106;12.008;2023-02-01T05:11:41;3.60;;;1.03;;
58518;SDS011;44310;48.106;12.008;2023-02-01T05:14:27;20.27;;;3.57;;
58518;SDS011;44310;48.106;12.008;2023-02-01T05:16:54;7.57;;;1.73;;
58518;SDS011;44310;48.106;12.008;2023-02-01T05:19:21;6.80;;;1.67;;
58518;SDS011;44310;48.106;12.008;2023-02-01T05:21:48;7.30;;;1.50;;
58518;SDS011;44310;48.106;12.008;2023-02-01T05:24:15;5.03;;;1.40;;
58518;SDS011;44310;48.106;12.008;2023-02-01T05:26:48;7.80;;;1.65;;
58518;SDS011;44310;48.106;12.008;2023-02-01T05:29:16;7.07;;;1.60;;
58518;SDS011;44310;48.106;12.008;2023-02-01T05:31:44;13.77;;;2.70;;
58518;SDS011;44310;48.106;12.008;2023-02-01T05:34:13;8.43;;;1.48;;
58518;SDS011;44310;48.106;12.008;2023-02-01T05:36:41;5.75;;;1.48;;
58518;SDS011;44310;48.106;12.008;2023-02-01T05:39:08;7.43;;;1.50;;
58518;SDS011;44310;48.106;12.008;2023-02-01T05:41:36;5.30;;;1.50;;
58518;SDS011;44310;48.106;12.008;2023-02-01T05:44:03;4.57;;;1.30;;
58518;SDS011;44310;48.106;12.008;2023-02-01T05:46:34;5.55;;;1.23;;
58518;SDS011;44310;48.106;12.008;2023-02-01T05:49:01;4.03;;;1.30;;
58518;SDS011;44310;48.106;12.008;2023-02-01T05:51:29;19.10;;;3.58;;
58518;SDS011;44310;48.106;12.008;2023-02-01T05:53:56;7.43;;;1.70;;
58518;SDS011;44310;48.106;12.008;2023-02-01T05:56:23;5.30;;;1.40;;
58518;SDS011;44310;48.106;12.008;2023-02-01T05:58:50;5.80;;;1.10;;
58518;SDS011;44310;48.106;12.008;2023-02-01T06:01:17;8.30;;;1.27;;
58518;SDS011;44310;48.106;12.008;2023-02-01T06:03:45;5.60;;;1.15;;
58518;SDS011;44310;48.106;12.008;2023-02-01T06:06:12;5.73;;;1.30;;
58518;SDS011;44310;48.106;12.008;2023-02-01T06:08:39;7.07;;;1.70;;
58518;SDS011;44310;48.106;12.008;2023-02-01T06:11:09;8.77;;;1.67;;
58518;SDS011;44310;48.106;12.008;2023-02-01T06:13:39;7.23;;;1.60;;
58518;SDS011;44310;48.106;12.008;2023-02-01T06:16:06;10.57;;;1.63;;
58518;SDS011;44310;48.106;12.008;2023-02-01T06:18:34;8.23;;;1.50;;
58518;SDS011;44310;48.106;12.008;2023-02-01T06:21:02;4.75;;;1.60;;
58518;SDS011;44310;48.106;12.008;2023-02-01T06:23:29;5.85;;;1.55;;
58518;SDS011;44310;48.106;12.008;2023-02-01T06:25:58;7.97;;;1.40;;
58518;SDS011;44310;48.106;12.008;2023-02-01T06:28:28;11.60;;;2.17;;
58518;SDS011;44310;48.106;12.008;2023-02-01T06:30:56;6.45;;;1.35;;
58518;SDS011;44310;48.106;12.008;2023-02-01T06:33:25;2.78;;;1.13;;
58518;SDS011;44310;48.106;12.008;2023-02-01T06:35:58;4.18;;;1.20;;
58518;SDS011;44310;48.106;12.008;2023-02-01T06:38:27;4.17;;;1.10;;
58518;SDS011;44310;48.106;12.008;2023-02-01T06:40:55;3.05;;;1.20;;
58518;SDS011;44310;48.106;12.008;2023-02-01T06:43:24;2.72;;;0.98;;
58518;SDS011;44310;48.106;12.008;2023-02-01T06:45:52;4.05;;;1.02;;
58518;SDS011;44310;48.106;12.008;2023-02-01T06:48:20;12.65;;;2.22;;
58518;SDS011;44310;48.106;12.008;2023-02-01T06:50:47;4.43;;;1.20;;
58518;SDS011;44310;48.106;12.008;2023-02-01T06:53:14;15.60;;;3.20;;
58518;SDS011;44310;48.106;12.008;2023-02-01T06:55:41;8.30;;;1.38;;
58518;SDS011;44310;48.106;12.008;2023-02-01T06:58:17;5.68;;;1.40;;
58518;SDS011;44310;48.106;12.008;2023-02-01T07:00:44;4.22;;;1.20;;
58518;SDS011;44310;48.106;12.008;2023-02-01T07:03:11;3.50;;;1.20;;
58518;SDS011;44310;48.106;12.008;2023-02-01T07:05:38;8.77;;;2.00;;
58518;SDS011;44310;48.106;12.008;2023-02-01T07:08:05;5.90;;;1.50;;
58518;SDS011;44310;48.106;12.008;2023-02-01T07:10:33;7.83;;;1.60;;
58518;SDS011;44310;48.106;12.008;2023-02-01T07:13:01;6.93;;;1.58;;
58518;SDS011;44310;48.106;12.008;2023-02-01T07:15:28;6.10;;;1.33;;
58518;SDS011;44310;48.106;12.008;2023-02-01T07:17:55;3.10;;;1.10;;
58518;SDS011;44310;48.106;12.008;2023-02-01T07:20:22;8.03;;;2.07;;
58518;SDS011;44310;48.106;12.008;2023-02-01T07:22:56;28.80;;;4.65;;
58518;SDS011;44310;48.106;12.008;2023-02-01T07:25:23;10.15;;;2.58;;
58518;SDS011;44310;48.106;12.008;2023-02-01T07:27:51;19.80;;;3.20;;
58518;SDS011;44310;48.106;12.008;2023-02-01T07:30:18;27.38;;;5.60;;
58518;SDS011;44310;48.106;12.008;2023-02-01T07:32:45;18.10;;;4.20;;
58518;SDS011;44310;48.106;12.008;2023-02-01T07:35:12;40.95;;;6.68;;
58518;SDS011;44310;48.106;12.008;2023-02-01T07:37:40;22.25;;;4.13;;
58518;SDS011;44310;48.106;12.008;2023-02-01T07:40:08;15.17;;;3.50;;
58518;SDS011;44310;48.106;12.008;2023-02-01T07:42:35;16.13;;;3.00;;
58518;SDS011;44310;48.106;12.008;2023-02-01T07:45:03;11.75;;;2.33;;
58518;SDS011;44310;48.106;12.008;2023-02-01T07:47:46;11.10;;;2.20;;
58518;SDS011;44310;48.106;12.008;2023-02-01T07:50:14;9.38;;;2.20;;
58518;SDS011;44310;48.106;12.008;2023-02-01T07:52:41;6.73;;;1.77;;
58518;SDS011;44310;48.106;12.008;2023-02-01T07:55:08;10.03;;;1.90;;
58518;SDS011;44310;48.106;12.008;2023-02-01T07:57:36;8.05;;;2.10;;
58518;SDS011;44310;48.106;12.008;2023-02-01T08:00:03;12.27;;;2.13;;
58518;SDS011;44310;48.106;12.008;2023-02-01T08:02:49;20.50;;;3.55;;
58518;SDS011;44310;48.106;12.008;2023-02-01T08:05:17;10.90;;;2.25;;
58518;SDS011;44310;48.106;12.008;2023-02-01T08:07:44;10.98;;;2.25;;
58518;SDS011;44310;48.106;12.008;2023-02-01T08:10:16;12.50;;;3.08;;
58518;SDS011;44310;48.106;12.008;2023-02-01T08:12:43;16.30;;;2.90;;
58518;SDS011;44310;48.106;12.008;2023-02-01T08:15:14;15.73;;;2.97;;
58518;SDS011;44310;48.106;12.008;2023-02-01T08:17:46;12.57;;;2.40;;
58518;SDS011;44310;48.106;12.008;2023-02-01T08:20:17;9.35;;;1.85;;
58518;SDS011;44310;48.106;12.008;2023-02-01T08:22:45;8.70;;;1.83;;
58518;SDS011;44310;48.106;12.008;2023-02-01T08:25:12;7.68;;;1.83;;
58518;SDS011;44310;48.106;12.008;2023-02-01T08:27:39;8.57;;;1.95;;
58518;SDS011;44310;48.106;12.008;2023-02-01T08:30:06;7.20;;;1.70;;
58518;SDS011;44310;48.106;12.008;2023-02-01T08:32:34;4.65;;;1.60;;
58518;SDS011;44310;48.106;12.008;2023-02-01T08:35:02;9.38;;;1.60;;
58518;SDS011;44310;48.106;12.008;2023-02-01T08:37:30;5.78;;;1.60;;
58518;SDS011;44310;48.106;12.008;2023-02-01T08:39:57;5.28;;;1.65;;
58518;SDS011;44310;48.106;12.008;2023-02-01T08:42:24;7.22;;;1.40;;
58518;SDS011;44310;48.106;12.008;2023-02-01T08:45:11;4.20;;;1.42;;
58518;SDS011;44310;48.106;12.008;2023-02-01T08:47:38;6.40;;;1.42;;
58518;SDS011;44310;48.106;12.008;2023-02-01T08:50:05;3.78;;;1.10;;
58518;SDS011;44310;48.106;12.008;2023-02-01T08:52:33;3.47;;;1.05;;
58518;SDS011;44310;48.106;12.008;2023-02-01T08:55:03;3.80;;;1.00;;
58518;SDS011;44310;48.106;12.008;2023-02-01T08:57:32;3.25;;;1.10;;
58518;SDS011;44310;48.106;12.008;2023-02-01T09:00:00;2.75;;;1.00;;
58518;SDS011;44310;48.106;12.008;2023-02-01T09:02:27;5.95;;;1.10;;
58518;SDS011;44310;48.106;12.008;2023-02-01T09:04:55;2.95;;;1.30;;
58518;SDS011;44310;48.106;12.008;2023-02-01T09:07:23;6.38;;;1.30;;
58518;SDS011;44310;48.106;12.008;2023-02-01T09:09:50;4.60;;;1.10;;
58518;SDS011;44310;48.106;12.008;2023-02-01T09:12:17;12.43;;;2.47;;
58518;SDS011;44310;48.106;12.008;2023-02-01T09:14:44;12.20;;;2.00;;
58518;SDS011;44310;48.106;12.008;2023-02-01T09:17:11;9.95;;;1.92;;
58518;SDS011;44310;48.106;12.008;2023-02-01T09:19:39;9.68;;;2.05;;
58518;SDS011;44310;48.106;12.008;2023-02-01T09:22:08;7.75;;;1.80;;
58518;SDS011;44310;48.106;12.008;2023-02-01T09:24:35;9.65;;;1.83;;
58518;SDS011;44310;48.106;12.008;2023-02-01T09:27:02;8.48;;;1.60;;
58518;SDS011;44310;48.106;12.008;2023-02-01T09:29:30;6.43;;;1.80;;
58518;SDS011;44310;48.106;12.008;2023-02-01T09:31:57;7.97;;;1.63;;
58518;SDS011;44310;48.106;12.008;2023-02-01T09:34:30;6.80;;;1.30;;
58518;SDS011;44310;48.106;12.008;2023-02-01T09:36:57;5.05;;;1.15;;
58518;SDS011;44310;48.106;12.008;2023-02-01T09:39:24;5.95;;;1.55;;
58518;SDS011;44310;48.106;12.008;2023-02-01T09:41:57;18.80;;;3.42;;
58518;SDS011;44310;48.106;12.008;2023-02-01T09:47:16;4.40;;;0.90;;
58518;SDS011;44310;48.106;12.008;2023-02-01T09:49:48;4.47;;;1.30;;
58518;SDS011;44310;48.106;12.008;2023-02-01T09:52:23;11.25;;;2.33;;
58518;SDS011;44310;48.106;12.008;2023-02-01T09:54:56;9.52;;;2.20;;
58518;SDS011;44310;48.106;12.008;2023-02-01T09:57:44;18.53;;;3.40;;
58518;SDS011;44310;48.106;12.008;2023-02-01T10:00:25;21.33;;;4.18;;
58518;SDS011;44310;48.106;12.008;2023-02-01T10:02:57;27.33;;;5.38;;
58518;SDS011;44310;48.106;12.008;2023-02-01T10:11:17;28.63;;;5.30;;
58518;SDS011;44310;48.106;12.008;2023-02-01T10:13:55;20.10;;;4.00;;
58518;SDS011;44310;48.106;12.008;2023-02-01T10:16:48;24.50;;;4.63;;
58518;SDS011;44310;48.106;12.008;2023-02-01T10:22:01;94.50;;;15.55;;
58518;SDS011;44310;48.106;12.008;2023-02-01T10:24:34;68.82;;;11.60;;
58518;SDS011;44310;48.106;12.008;2023-02-01T10:27:12;43.83;;;7.53;;
58518;SDS011;44310;48.106;12.008;2023-02-01T10:29:43;40.08;;;7.03;;
58518;SDS011;44310;48.106;12.008;2023-02-01T10:32:23;31.58;;;5.63;;
58518;SDS011;44310;48.106;12.008;2023-02-01T10:34:56;36.72;;;6.80;;
58518;SDS011;44310;48.106;12.008;2023-02-01T10:39:55;34.75;;;6.55;;
58518;SDS011;44310;48.106;12.008;2023-02-01T10:42:25;19.13;;;3.47;;
58518;SDS011;44310;48.106;12.008;2023-02-01T10:44:55;13.43;;;2.90;;
58518;SDS011;44310;48.106;12.008;2023-02-01T10:47:26;12.73;;;2.50;;
58518;SDS011;44310;48.106;12.008;2023-02-01T10:52:31;11.45;;;2.00;;
58518;SDS011;44310;48.106;12.008;2023-02-01T10:58:10;17.88;;;3.33;;
58518;SDS011;44310;48.106;12.008;2023-02-01T11:00:43;13.82;;;2.50;;
58518;SDS011;44310;48.106;12.008;2023-02-01T11:03:21;14.48;;;2.22;;
58518;SDS011;44310;48.106;12.008;2023-02-01T11:06:00;10.32;;;1.80;;
58518;SDS011;44310;48.106;12.008;2023-02-01T11:08:29;7.60;;;1.83;;
58518;SDS011;44310;48.106;12.008;2023-02-01T11:11:00;9.70;;;1.83;;
58518;SDS011;44310;48.106;12.008;2023-02-01T11:13:32;5.45;;;1.27;;
58518;SDS011;44310;48.106;12.008;2023-02-01T11:16:05;6.63;;;1.80;;
58518;SDS011;44310;48.106;12.008;2023-02-01T11:18:36;8.23;;;1.55;;
58518;SDS011;44310;48.106;12.008;2023-02-01T11:21:04;8.27;;;1.98;;
58518;SDS011;44310;48.106;12.008;2023-02-01T11:23:33;9.90;;;1.90;;
58518;SDS011;44310;48.106;12.008;2023-02-01T11:26:13;7.83;;;1.60;;
58518;SDS011;44310;48.106;12.008;2023-02-01T11:29:05;9.30;;;2.10;;
58518;SDS011;44310;48.106;12.008;2023-02-01T11:31:39;4.18;;;1.13;;
58518;SDS011;44310;48.106;12.008;2023-02-01T11:34:14;5.80;;;1.45;;
58518;SDS011;44310;48.106;12.008;2023-02-01T11:36:45;3.97;;;1.15;;
58518;SDS011;44310;48.106;12.008;2023-02-01T11:39:22;5.47;;;1.27;;
58518;SDS011;44310;48.106;12.008;2023-02-01T11:42:03;6.95;;;1.60;;
58518;SDS011;44310;48.106;12.008;2023-02-01T11:44:45;9.13;;;2.00;;
58518;SDS011;44310;48.106;12.008;2023-02-01T11:47:29;15.93;;;2.67;;
58518;SDS011;44310;48.106;12.008;2023-02-01T11:50:02;12.93;;;2.20;;
58518;SDS011;44310;48.106;12.008;2023-02-01T11:55:37;12.52;;;2.25;;
58518;SDS011;44310;48.106;12.008;2023-02-01T12:20:41;3.25;;;0.88;;
58518;SDS011;44310;48.106;12.008;2023-02-01T12:23:44;3.17;;;1.02;;
58518;SDS011;44310;48.106;12.008;2023-02-01T12:29:12;9.43;;;1.80;;
58518;SDS011;44310;48.106;12.008;2023-02-01T12:40:14;10.90;;;2.10;;
58518;SDS011;44310;48.106;12.008;2023-02-01T12:42:48;6.05;;;1.38;;
58518;SDS011;44310;48.106;12.008;2023-02-01T12:45:43;8.40;;;1.80;;
58518;SDS011;44310;48.106;12.008;2023-02-01T12:48:25;6.05;;;1.63;;
58518;SDS011;44310;48.106;12.008;2023-02-01T12:50:54;8.98;;;1.55;;
58518;SDS011;44310;48.106;12.008;2023-02-01T12:56:21;7.05;;;1.80;;
58518;SDS011;44310;48.106;12.008;2023-02-01T12:58:53;7.53;;;1.50;;
58518;SDS011;44310;48.106;12.008;2023-02-01T13:01:37;4.03;;;1.30;;
58518;SDS011;44310;48.106;12.008;2023-02-01T13:04:15;5.30;;;1.60;;
58518;SDS011;44310;48.106;12.008;2023-02-01T13:07:04;6.80;;;1.38;;
58518;SDS011;44310;48.106;12.008;2023-02-01T13:09:46;5.95;;;1.30;;
58518;SDS011;44310;48.106;12.008;2023-02-01T13:12:36;7.63;;;1.40;;
58518;SDS011;44310;48.106;12.008;2023-02-01T13:15:23;7.25;;;1.33;;
58518;SDS011;44310;48.106;12.008;2023-02-01T13:17:54;4.07;;;1.17;;
58518;SDS011;44310;48.106;12.008;2023-02-01T13:20:28;4.65;;;1.20;;
58518;SDS011;44310;48.106;12.008;2023-02-01T13:23:27;2.33;;;0.90;;
58518;SDS011;44310;48.106;12.008;2023-02-01T13:25:57;2.25;;;0.90;;
58518;SDS011;44310;48.106;12.008;2023-02-01T13:28:26;1.70;;;0.70;;
58518;SDS011;44310;48.106;12.008;2023-02-01T13:36:47;2.60;;;0.90;;
58518;SDS011;44310;48.106;12.008;2023-02-01T13:42:14;2.67;;;0.70;;
58518;SDS011;44310;48.106;12.008;2023-02-01T13:44:51;1.70;;;0.65;;
58518;SDS011;44310;48.106;12.008;2023-02-01T13:52:43;1.30;;;0.60;;
58518;SDS011;44310;48.106;12.008;2023-02-01T13:57:48;1.80;;;0.60;;
58518;SDS011;44310;48.106;12.008;2023-02-01T14:00:23;1.10;;;0.47;;
58518;SDS011;44310;48.106;12.008;2023-02-01T14:10:47;0.63;;;0.60;;
58518;SDS011;44310;48.106;12.008;2023-02-01T14:13:24;1.08;;;0.47;;
58518;SDS011;44310;48.106;12.008;2023-02-01T14:32:30;12.00;;;2.15;;
58518;SDS011;44310;48.106;12.008;2023-02-01T14:39:50;25.85;;;5.32;;
58518;SDS011;44310;48.106;12.008;2023-02-01T14:42:24;11.75;;;2.38;;
58518;SDS011;44310;48.106;12.008;2023-02-01T14:44:52;9.10;;;1.80;;
58518;SDS011;44310;48.106;12.008;2023-02-01T14:47:27;4.90;;;1.43;;
58518;SDS011;44310;48.106;12.008;2023-02-01T14:52:34;9.18;;;1.95;;
58518;SDS011;44310;48.106;12.008;2023-02-01T14:55:11;18.43;;;3.10;;
58518;SDS011;44310;48.106;12.008;2023-02-01T14:57:57;8.10;;;1.60;;
58518;SDS011;44310;48.106;12.008;2023-02-01T15:00:28;7.97;;;1.70;;
58518;SDS011;44310;48.106;12.008;2023-02-01T15:05:42;14.00;;;2.43;;
58518;SDS011;44310;48.106;12.008;2023-02-01T15:08:19;9.15;;;2.15;;
58518;SDS011;44310;48.106;12.008;2023-02-01T15:10:50;13.47;;;2.67;;
58518;SDS011;44310;48.106;12.008;2023-02-01T15:13:21;8.68;;;1.60;;
58518;SDS011;44310;48.106;12.008;2023-02-01T15:16:02;8.05;;;1.80;;
58518;SDS011;44310;48.106;12.008;2023-02-01T15:18:32;7.38;;;2.00;;
58518;SDS011;44310;48.106;12.008;2023-02-01T15:21:00;7.05;;;1.45;;
58518;SDS011;44310;48.106;12.008;2023-02-01T15:23:48;9.17;;;2.00;;
58518;SDS011;44310;48.106;12.008;2023-02-01T15:26:30;8.98;;;1.85;;
58518;SDS011;44310;48.106;12.008;2023-02-01T15:28:58;8.17;;;1.70;;
58518;SDS011;44310;48.106;12.008;2023-02-01T15:31:36;6.15;;;1.33;;
58518;SDS011;44310;48.106;12.008;2023-02-01T15:34:05;8.50;;;1.63;;
58518;SDS011;44310;48.106;12.008;2023-02-01T15:36:33;8.38;;;1.95;;
58518;SDS011;44310;48.106;12.008;2023-02-01T15:39:14;4.63;;;1.30;;
58518;SDS011;44310;48.106;12.008;2023-02-01T15:41:49;4.50;;;1.17;;
58518;SDS011;44310;48.106;12.008;2023-02-01T15:44:38;3.63;;;1.13;;
58518;SDS011;44310;48.106;12.008;2023-02-01T15:47:12;4.65;;;0.90;;
58518;SDS011;44310;48.106;12.008;2023-02-01T15:49:50;3.63;;;0.90;;
58518;SDS011;44310;48.106;12.008;2023-02-01T15:55:04;9.60;;;1.80;;
58518;SDS011;44310;48.106;12.008;2023-02-01T15:57:36;21.35;;;4.07;;
58518;SDS011;44310;48.106;12.008;2023-02-01T16:00:08;8.07;;;1.75;;
58518;SDS011;44310;48.106;12.008;2023-02-01T16:02:55;9.00;;;1.50;;
58518;SDS011;44310;48.106;12.008;2023-02-01T16:05:40;7.78;;;1.63;;
58518;SDS011;44310;48.106;12.008;2023-02-01T16:08:10;14.47;;;2.13;;
58518;SDS011;44310;48.106;12.008;2023-02-01T16:10:45;7.77;;;1.50;;
58518;SDS011;44310;48.106;12.008;2023-02-01T16:13:14;5.75;;;1.20;;
58518;SDS011;44310;48.106;12.008;2023-02-01T16:15:42;4.45;;;0.95;;
58518;SDS011;44310;48.106;12.008;2023-02-01T16:18:10;2.58;;;0.60;;
58518;SDS011;44310;48.106;12.008;2023-02-01T16:20:39;5.00;;;1.10;;
58518;SDS011;44310;48.106;12.008;2023-02-01T16:23:08;16.23;;;2.58;;
58518;SDS011;44310;48.106;12.008;2023-02-01T16:25:36;3.17;;;0.98;;
58518;SDS011;44310;48.106;12.008;2023-02-01T16:28:04;17.45;;;2.95;;
58518;SDS011;44310;48.106;12.008;2023-02-01T16:30:32;12.38;;;2.58;;
58518;SDS011;44310;48.106;12.008;2023-02-01T16:32:59;42.72;;;8.20;;
58518;SDS011;44310;48.106;12.008;2023-02-01T16:35:34;51.42;;;9.10;;
58518;SDS011;44310;48.106;12.008;2023-02-01T16:38:11;54.20;;;8.77;;
58518;SDS011;44310;48.106;12.008;2023-02-01T16:40:40;44.17;;;7.78;;
58518;SDS011;44310;48.106;12.008;2023-02-01T16:43:15;38.53;;;6.77;;
58518;SDS011;44310;48.106;12.008;2023-02-01T16:45:51;41.50;;;6.82;;
58518;SDS011;44310;48.106;12.008;2023-02-01T16:48:24;27.60;;;4.82;;
58518;SDS011;44310;48.106;12.008;2023-02-01T16:51:04;20.52;;;3.80;;
58518;SDS011;44310;48.106;12.008;2023-02-01T16:53:40;18.15;;;3.85;;
58518;SDS011;44310;48.106;12.008;2023-02-01T16:56:21;16.80;;;3.33;;
58518;SDS011;44310;48.106;12.008;2023-02-01T16:58:50;12.65;;;2.60;;
58518;SDS011;44310;48.106;12.008;2023-02-01T17:01:18;16.35;;;2.97;;
58518;SDS011;44310;48.106;12.008;2023-02-01T17:03:46;12.00;;;3.20;;
58518;SDS011;44310;48.106;12.008;2023-02-01T17:06:17;12.30;;;2.67;;
58518;SDS011;44310;48.106;12.008;2023-02-01T17:08:50;14.48;;;2.60;;
58518;SDS011;44310;48.106;12.008;2023-02-01T17:11:20;7.28;;;2.08;;
58518;SDS011;44310;48.106;12.008;2023-02-01T17:13:47;9.27;;;2.13;;
58518;SDS011;44310;48.106;12.008;2023-02-01T17:18:46;17.75;;;3.28;;
58518;SDS011;44310;48.106;12.008;2023-02-01T17:21:26;11.85;;;2.55;;
58518;SDS011;44310;48.106;12.008;2023-02-01T17:23:56;8.93;;;2.00;;